Etusivu
METAR-TAF:

METAR-TAF

Lentoasemat :

Magdalen Islands, Quebec, Kanada

Leveyspiiri: 47-25N, Pituuspiiri: 061-47W, korkeus merenpinnasta: 10 m

Tämänhetkinen sää

Tämä raportti tehtiin 18 minuuttia sitten, kello 20.00 UTC
Tuuli 8 kn idästä
Lämpötila 15°C
Kosteus 77%
Ilmanpaine 1015 hPa
Näkyvyys: 32.2 km
Hajanaisia pilviä 25000 ft:n korkeudessa

METAR: CYGR 032000Z 10008KT 20SM SCT250 15/11 A2998 RMK CI3 SLP154

Aika: 16:18 (20:18 UTC)

Sääennuste

Tämä raportti tehtiin 40 minuuttia sitten, kello 19.38 UTC
Ennuste voimassa 03. päivästä klo 20 UTC - 04. päivään klo 02 UTC
Tuuli 8 kn idästä/kaakosta
Näkyvyys: 10 km
Muutamia pilviä 2000 ft:n korkeudessa

TAF: CYGR 031938Z 0320/0402 12008KT P6SM FEW020 RMK NXT FCST WILL BE ISSUED AT 041045Z

Säähavainnot ja -ennusteet yli 4000 lentoasemalta (METAR- ja TAF-raportit).

Käytössä olevat sääasemat on merkitty karttaan keltaisilla ja punaisilla pisteillä.

Aseta hiiri pisteen päälle nähdäksesi sääaseman nimen.

Klikkaa sitten nähdäksesi säähavainnot ja -ennusteet.

Kartan vaihtaminen: klikkaa mustalla rastilla varustettuja vihreitä pisteitä, niin voit zoomata sisään; viivalla varustettua vihreää pistettä, niin voit zoomata ulos tai vihreitä nuolia, niin pääset viereisille kartoille.


METAR-TAF: